createdAt,value
2023-04-05T00:01:53.661Z,6.25
2023-04-05T00:04:20.890Z,5.40
2023-04-05T00:06:50.574Z,5.57
2023-04-05T00:09:18.560Z,6.05
2023-04-05T00:11:45.196Z,5.38
2023-04-05T00:14:11.830Z,4.53
2023-04-05T00:16:38.550Z,4.13
2023-04-05T00:19:05.681Z,3.95
2023-04-05T00:21:33.414Z,3.20
2023-04-05T00:24:00.050Z,4.00
2023-04-05T00:26:26.890Z,3.53
2023-04-05T00:28:53.618Z,4.15
2023-04-05T00:31:20.230Z,3.85
2023-04-05T00:33:46.870Z,3.88
2023-04-05T00:36:14.431Z,2.80
2023-04-05T00:38:41.559Z,3.38
2023-04-05T00:41:08.399Z,4.05
2023-04-05T00:43:35.182Z,3.13
2023-04-05T00:46:02.215Z,3.42
2023-04-05T00:48:29.075Z,3.17
2023-04-05T00:50:55.905Z,3.42
2023-04-05T00:53:22.519Z,3.90
2023-04-05T00:55:49.330Z,3.08
2023-04-05T00:58:19.243Z,3.55
2023-04-05T01:01:06.295Z,3.60
2023-04-05T01:03:34.648Z,3.40
2023-04-05T01:06:20.864Z,4.22
2023-04-05T01:09:05.354Z,3.75
2023-04-05T01:11:32.400Z,3.47
2023-04-05T01:14:02.156Z,3.35
2023-04-05T01:16:28.893Z,3.40
2023-04-05T01:18:56.724Z,4.10
2023-04-05T01:21:38.079Z,3.70
2023-04-05T01:24:27.304Z,3.35
2023-04-05T01:26:59.415Z,3.33
2023-04-05T01:29:57.225Z,3.28
2023-04-05T01:32:33.274Z,4.30
2023-04-05T01:35:29.559Z,3.08
2023-04-05T01:37:59.879Z,3.58
2023-04-05T01:40:26.501Z,3.80
2023-04-05T01:42:53.092Z,3.45
2023-04-05T01:45:19.707Z,3.42
2023-04-05T01:47:46.347Z,3.58
2023-04-05T01:50:12.985Z,3.25
2023-04-05T01:52:39.584Z,3.40
2023-04-05T01:55:06.639Z,3.63
2023-04-05T01:57:33.275Z,4.20
2023-04-05T01:59:59.883Z,3.85
2023-04-05T02:02:26.543Z,3.47
2023-04-05T02:04:53.294Z,3.65
2023-04-05T02:07:19.896Z,3.70
2023-04-05T02:09:46.536Z,3.72
2023-04-05T02:12:13.149Z,3.90
2023-04-05T02:14:40.033Z,4.22
2023-04-05T02:17:06.701Z,3.88
2023-04-05T02:19:40.606Z,3.60
2023-04-05T02:22:08.204Z,3.85
2023-04-05T02:24:35.157Z,3.97
2023-04-05T02:27:01.761Z,4.38
2023-04-05T02:29:28.483Z,3.90
2023-04-05T02:31:55.339Z,3.55
2023-04-05T02:34:22.860Z,3.83
2023-04-05T02:36:51.094Z,3.97
2023-04-05T02:39:18.319Z,3.63
2023-04-05T02:41:45.155Z,3.97
2023-04-05T02:44:12.292Z,3.88
2023-04-05T02:46:38.942Z,3.65
2023-04-05T02:49:05.578Z,3.88
2023-04-05T02:51:34.465Z,4.03
2023-04-05T02:54:02.891Z,3.47
2023-04-05T02:56:30.061Z,3.92
2023-04-05T02:58:56.707Z,4.07
2023-04-05T03:01:23.950Z,3.38
2023-04-05T03:03:51.038Z,3.78
2023-04-05T03:06:17.733Z,3.70
2023-04-05T03:08:44.450Z,3.50
2023-04-05T03:11:11.312Z,3.97
2023-04-05T03:13:37.998Z,4.35
2023-04-05T03:16:05.256Z,5.10
2023-04-05T03:18:31.914Z,3.70
2023-04-05T03:20:58.804Z,3.65
2023-04-05T03:23:27.376Z,3.63
2023-04-05T03:25:56.221Z,5.07
2023-04-05T03:28:23.698Z,3.80
2023-04-05T03:30:50.342Z,3.70
2023-04-05T03:33:17.379Z,4.65
2023-04-05T03:35:44.073Z,4.00
2023-04-05T03:38:10.827Z,3.50
2023-04-05T03:40:37.439Z,3.90
2023-04-05T03:43:04.068Z,4.00
2023-04-05T03:45:30.708Z,4.30
2023-04-05T03:47:58.181Z,3.35
2023-04-05T03:50:26.362Z,3.78
2023-04-05T03:52:53.356Z,4.20
2023-04-05T03:55:20.015Z,4.20
2023-04-05T03:57:47.263Z,4.20
2023-04-05T04:00:14.412Z,3.55
2023-04-05T04:02:43.022Z,4.38
2023-04-05T04:05:09.977Z,3.40
2023-04-05T04:07:36.610Z,3.85
2023-04-05T04:10:05.378Z,4.20
2023-04-05T04:12:32.263Z,3.50
2023-04-05T04:14:58.959Z,3.58
2023-04-05T04:17:35.025Z,3.55
2023-04-05T04:20:01.680Z,3.92
2023-04-05T04:22:33.253Z,3.67
2023-04-05T04:25:03.899Z,4.20
2023-04-05T04:27:35.594Z,4.00
2023-04-05T04:30:05.253Z,3.55
2023-04-05T04:32:50.341Z,4.45
2023-04-05T04:35:18.680Z,4.10
2023-04-05T04:37:52.750Z,4.82
2023-04-05T04:42:48.778Z,3.90
2023-04-05T04:45:19.219Z,4.85
2023-04-05T04:47:47.234Z,4.47
2023-04-05T04:50:14.117Z,4.38
2023-04-05T04:52:40.812Z,4.03
2023-04-05T04:55:08.652Z,4.25
2023-04-05T04:57:35.633Z,4.10
2023-04-05T05:00:02.404Z,4.85
2023-04-05T05:02:31.155Z,4.70
2023-04-05T05:04:58.363Z,4.80
2023-04-05T05:07:25.530Z,5.20
2023-04-05T05:09:54.087Z,4.18
2023-04-05T05:12:21.932Z,4.78
2023-04-05T05:14:48.567Z,4.65
2023-04-05T05:17:15.445Z,4.32
2023-04-05T05:19:42.593Z,4.18
2023-04-05T05:22:09.193Z,4.85
2023-04-05T05:24:35.876Z,4.22
2023-04-05T05:27:02.616Z,5.35
2023-04-05T05:29:29.550Z,4.53
2023-04-05T05:31:56.453Z,5.13
2023-04-05T05:34:23.121Z,4.20
2023-04-05T05:36:49.946Z,4.68
2023-04-05T05:39:16.730Z,4.20
2023-04-05T05:41:44.400Z,3.38
2023-04-05T05:44:11.002Z,3.33
2023-04-05T05:46:37.682Z,3.13
2023-04-05T05:49:04.351Z,3.70
2023-04-05T05:51:32.357Z,3.58
2023-04-05T05:53:58.983Z,4.05
2023-04-05T05:56:25.593Z,4.07
2023-04-05T05:58:52.538Z,4.20
2023-04-05T06:01:22.847Z,3.60
2023-04-05T06:03:50.500Z,4.53
2023-04-05T06:06:17.163Z,5.07
2023-04-05T06:08:43.972Z,6.63
2023-04-05T06:11:20.064Z,5.00
2023-04-05T06:13:46.727Z,4.97
2023-04-05T06:16:13.367Z,4.25
2023-04-05T06:18:40.024Z,4.45
2023-04-05T06:21:06.632Z,4.85
2023-04-05T06:23:33.825Z,3.92
2023-04-05T06:26:00.732Z,3.33
2023-04-05T06:28:27.460Z,3.15
2023-04-05T06:30:55.521Z,3.47
2023-04-05T06:33:22.270Z,4.28
2023-04-05T06:35:48.933Z,4.38
2023-04-05T06:38:15.625Z,4.35
2023-04-05T06:40:42.434Z,4.07
2023-04-05T06:43:10.874Z,4.47
2023-04-05T06:45:37.609Z,3.55
2023-04-05T06:48:04.451Z,4.18
2023-04-05T06:50:31.146Z,3.83
2023-04-05T06:52:57.751Z,3.92
2023-04-05T06:55:24.373Z,3.40
2023-04-05T06:57:51.180Z,3.90
2023-04-05T07:00:18.523Z,3.20
2023-04-05T07:02:45.374Z,3.45
2023-04-05T07:05:12.733Z,3.50
2023-04-05T07:07:40.921Z,3.47
2023-04-05T07:10:08.153Z,3.58
2023-04-05T07:12:34.773Z,4.40
2023-04-05T07:15:01.638Z,3.33
2023-04-05T07:17:28.296Z,3.50
2023-04-05T07:19:54.916Z,3.30
2023-04-05T07:22:21.535Z,3.50
2023-04-05T07:24:48.621Z,3.15
2023-04-05T07:27:16.024Z,4.10
2023-04-05T07:29:44.546Z,13.85
2023-04-05T07:32:12.050Z,4.35
2023-04-05T07:34:38.675Z,8.70
2023-04-05T07:37:05.750Z,3.55
2023-04-05T07:39:33.097Z,7.35
2023-04-05T07:41:59.716Z,3.95
2023-04-05T07:44:26.369Z,3.83
2023-04-05T07:46:53.367Z,6.32
2023-04-05T07:49:25.000Z,3.47
2023-04-05T07:51:54.793Z,3.10
2023-04-05T07:54:21.401Z,5.60
2023-04-05T07:56:49.437Z,7.68
2023-04-05T07:59:16.592Z,3.53
2023-04-05T08:01:43.225Z,6.18
2023-04-05T08:04:10.037Z,3.00
2023-04-05T08:06:36.724Z,3.00
2023-04-05T08:09:05.609Z,2.97
2023-04-05T08:11:32.482Z,3.92
2023-04-05T08:13:59.083Z,3.25
2023-04-05T08:16:25.901Z,3.58
2023-04-05T08:18:52.504Z,3.33
2023-04-05T08:21:19.136Z,2.85
2023-04-05T08:23:45.821Z,3.22
2023-04-05T08:26:12.462Z,2.75
2023-04-05T08:28:39.183Z,2.90
2023-04-05T08:31:06.065Z,3.65
2023-04-05T08:33:32.910Z,3.50
2023-04-05T08:36:04.950Z,3.70
2023-04-05T08:38:31.597Z,3.53
2023-04-05T08:40:58.222Z,4.00
2023-04-05T08:43:56.751Z,3.67
2023-04-05T08:46:23.501Z,3.10
2023-04-05T08:48:50.520Z,3.13
2023-04-05T08:51:23.296Z,3.50
2023-04-05T08:53:49.912Z,3.42
2023-04-05T08:56:22.029Z,3.15
2023-04-05T08:58:53.388Z,3.13
2023-04-05T09:01:20.118Z,3.05
2023-04-05T09:03:47.036Z,3.65
2023-04-05T09:06:13.667Z,4.18
2023-04-05T09:08:40.270Z,3.45
2023-04-05T09:11:06.973Z,3.10
2023-04-05T09:13:33.840Z,4.18
2023-04-05T09:16:01.620Z,3.72
2023-04-05T09:18:28.294Z,3.17
2023-04-05T09:21:06.266Z,3.22
2023-04-05T09:23:36.554Z,3.80
2023-04-05T09:26:24.864Z,3.70
2023-04-05T09:28:51.647Z,4.25
2023-04-05T09:31:31.996Z,3.80
2023-04-05T09:34:08.852Z,4.32
2023-04-05T09:36:36.112Z,3.92
2023-04-05T09:39:07.079Z,3.80
2023-04-05T09:41:34.701Z,4.25
2023-04-05T09:44:01.292Z,4.03
2023-04-05T09:46:32.687Z,3.40
2023-04-05T09:48:59.824Z,4.38
2023-04-05T09:51:32.533Z,3.85
2023-04-05T09:54:09.837Z,3.38
2023-04-05T09:56:37.957Z,3.03
2023-04-05T09:59:09.521Z,3.60
2023-04-05T10:01:38.042Z,3.55
2023-04-05T10:04:06.226Z,3.65
2023-04-05T10:06:40.285Z,3.63
2023-04-05T10:09:07.908Z,3.42
2023-04-05T10:11:34.879Z,3.90
2023-04-05T10:14:03.816Z,3.75
2023-04-05T10:16:35.800Z,4.13
2023-04-05T10:19:03.186Z,3.30
2023-04-05T10:21:31.858Z,3.55
2023-04-05T10:24:40.884Z,3.53
2023-04-05T10:27:30.431Z,4.30
2023-04-05T10:30:08.679Z,3.70
2023-04-05T10:32:44.665Z,3.60
2023-04-05T10:35:23.336Z,4.30
2023-04-05T10:38:08.475Z,4.03
2023-04-05T10:40:35.263Z,3.80
2023-04-05T10:43:02.080Z,4.10
2023-04-05T10:45:29.139Z,3.42
2023-04-05T10:48:02.323Z,3.50
2023-04-05T10:50:29.257Z,3.70
2023-04-05T10:52:55.875Z,3.78
2023-04-05T10:55:22.827Z,3.35
2023-04-05T10:57:49.463Z,3.60
2023-04-05T11:00:16.772Z,3.50
2023-04-05T11:02:43.582Z,3.70
2023-04-05T11:05:35.725Z,3.70
2023-04-05T11:08:06.998Z,3.38
2023-04-05T11:10:37.572Z,3.95
2023-04-05T11:13:05.203Z,3.60
2023-04-05T11:15:32.768Z,3.75
2023-04-05T11:18:06.595Z,4.38
2023-04-05T11:20:47.484Z,4.28
2023-04-05T11:23:15.695Z,3.78
2023-04-05T11:25:52.112Z,3.58
2023-04-05T11:28:25.842Z,3.88
2023-04-05T11:30:56.447Z,3.85
2023-04-05T11:33:39.779Z,3.35
2023-04-05T11:36:06.990Z,7.00
2023-04-05T11:38:33.882Z,4.18
2023-04-05T11:41:07.485Z,4.10
2023-04-05T11:43:38.525Z,3.67
2023-04-05T11:46:05.589Z,3.70
2023-04-05T11:48:32.242Z,3.83
2023-04-05T11:50:59.077Z,4.25
2023-04-05T11:53:25.854Z,3.53
2023-04-05T11:55:52.773Z,4.18
2023-04-05T11:58:21.491Z,4.03
2023-04-05T12:01:03.785Z,4.00
2023-04-05T12:03:30.741Z,3.35
2023-04-05T12:05:58.993Z,5.70
2023-04-05T12:08:41.059Z,4.00
2023-04-05T12:11:11.601Z,3.72
2023-04-05T12:13:38.652Z,3.08
2023-04-05T12:16:07.079Z,3.60
2023-04-05T12:18:34.801Z,3.80
2023-04-05T12:21:07.637Z,3.92
2023-04-05T12:23:34.825Z,3.63
2023-04-05T12:26:01.491Z,3.78
2023-04-05T12:28:52.204Z,3.88
2023-04-05T12:31:35.138Z,3.53
2023-04-05T12:34:01.762Z,3.60
2023-04-05T12:36:28.375Z,3.70
2023-04-05T12:38:55.250Z,3.25
2023-04-05T12:41:29.856Z,3.60
2023-04-05T12:44:04.522Z,4.03
2023-04-05T12:46:40.858Z,3.65
2023-04-05T12:49:10.615Z,3.65
2023-04-05T12:51:40.876Z,3.83
2023-04-05T12:54:07.707Z,3.38
2023-04-05T12:56:34.306Z,3.40
2023-04-05T12:59:02.288Z,3.58
2023-04-05T13:01:31.137Z,3.83
2023-04-05T13:04:14.594Z,3.85
2023-04-05T13:09:09.081Z,3.28
2023-04-05T13:11:35.707Z,3.15
2023-04-05T13:14:02.366Z,3.40
2023-04-05T13:16:29.108Z,3.17
2023-04-05T13:18:55.868Z,3.22
2023-04-05T13:21:22.495Z,3.15
2023-04-05T13:23:49.118Z,3.08
2023-04-05T13:26:15.945Z,3.58
2023-04-05T13:28:42.581Z,3.30
2023-04-05T13:31:09.238Z,3.47
2023-04-05T13:33:35.942Z,3.30
2023-04-05T13:36:02.659Z,4.82
2023-04-05T13:38:29.341Z,4.18
2023-04-05T13:40:55.982Z,5.05
2023-04-05T13:43:22.876Z,3.92
2023-04-05T13:45:49.878Z,3.33
2023-04-05T13:48:16.525Z,3.38
2023-04-05T13:50:43.357Z,3.38
2023-04-05T13:53:10.630Z,4.38
2023-04-05T13:55:38.352Z,3.42
2023-04-05T13:58:05.208Z,3.47
2023-04-05T14:00:31.818Z,3.35
2023-04-05T14:02:58.515Z,3.05
2023-04-05T14:05:25.458Z,3.53
2023-04-05T14:07:52.159Z,3.60
2023-04-05T14:10:21.449Z,4.57
2023-04-05T14:12:48.134Z,3.47
2023-04-05T14:15:14.790Z,3.50
2023-04-05T14:17:41.568Z,6.05
2023-04-05T14:20:08.429Z,6.35
2023-04-05T14:22:35.077Z,3.53
2023-04-05T14:25:02.008Z,3.35
2023-04-05T14:27:28.592Z,3.15
2023-04-05T14:29:58.109Z,5.47
2023-04-05T14:32:25.382Z,4.13
2023-04-05T14:34:52.082Z,4.88
2023-04-05T14:37:18.691Z,3.67
2023-04-05T14:39:46.913Z,4.13
2023-04-05T14:42:13.668Z,3.28
2023-04-05T14:44:40.410Z,3.72
2023-04-05T14:47:07.070Z,3.17
2023-04-05T14:49:34.917Z,3.28
2023-04-05T14:52:02.386Z,3.63
2023-04-05T14:54:29.315Z,3.50
2023-04-05T14:56:55.927Z,4.78
2023-04-05T14:59:22.841Z,3.42
2023-04-05T15:01:49.723Z,3.17
2023-04-05T15:04:16.412Z,3.45
2023-04-05T15:06:43.204Z,3.70
2023-04-05T15:09:10.049Z,3.50
2023-04-05T15:11:39.086Z,3.22
2023-04-05T15:14:07.453Z,3.33
2023-04-05T15:16:35.385Z,3.55
2023-04-05T15:19:02.606Z,3.33
2023-04-05T15:21:29.630Z,3.28
2023-04-05T15:23:56.285Z,3.67
2023-04-05T15:26:22.875Z,3.53
2023-04-05T15:28:49.674Z,3.35
2023-04-05T15:31:16.349Z,3.38
2023-04-05T15:33:43.003Z,3.65
2023-04-05T15:36:09.749Z,3.70
2023-04-05T15:38:36.402Z,4.10
2023-04-05T15:41:03.011Z,3.65
2023-04-05T15:43:31.240Z,3.45
2023-04-05T15:45:57.893Z,3.28
2023-04-05T15:48:24.592Z,3.75
2023-04-05T15:50:51.221Z,3.67
2023-04-05T15:53:17.886Z,3.80
2023-04-05T15:55:44.687Z,4.38
2023-04-05T15:58:11.353Z,3.35
2023-04-05T16:00:38.201Z,3.45
2023-04-05T16:03:04.958Z,3.78
2023-04-05T16:05:31.706Z,3.25
2023-04-05T16:07:59.533Z,3.83
2023-04-05T16:10:26.304Z,5.22
2023-04-05T16:12:54.155Z,3.40
2023-04-05T16:15:20.866Z,3.50
2023-04-05T16:17:47.495Z,3.63
2023-04-05T16:20:14.306Z,3.80
2023-04-05T16:22:41.458Z,3.55
2023-04-05T16:25:08.396Z,3.53
2023-04-05T16:27:36.937Z,3.42
2023-04-05T16:30:03.953Z,3.38
2023-04-05T16:32:30.855Z,4.25
2023-04-05T16:34:57.504Z,3.60
2023-04-05T16:37:24.435Z,3.72
2023-04-05T16:39:51.093Z,3.63
2023-04-05T16:42:17.690Z,3.28
2023-04-05T16:44:44.610Z,3.53
2023-04-05T16:47:14.743Z,3.60
2023-04-05T16:49:41.394Z,3.80
2023-04-05T16:52:08.527Z,3.33
2023-04-05T16:54:35.139Z,3.83
2023-04-05T16:57:02.119Z,3.92
2023-04-05T16:59:28.783Z,3.63
2023-04-05T17:01:55.747Z,3.58
2023-04-05T17:04:22.438Z,3.40
2023-04-05T17:06:49.662Z,3.50
2023-04-05T17:09:16.518Z,3.60
2023-04-05T17:11:43.186Z,3.58
2023-04-05T17:14:09.808Z,3.47
2023-04-05T17:16:36.448Z,3.17
2023-04-05T17:19:03.440Z,3.55
2023-04-05T17:21:30.263Z,3.78
2023-04-05T17:23:56.895Z,4.00
2023-04-05T17:26:23.924Z,8.75
2023-04-05T17:28:50.521Z,5.43
2023-04-05T17:31:17.249Z,6.50
2023-04-05T17:33:45.808Z,4.00
2023-04-05T17:36:13.723Z,4.03
2023-04-05T17:38:40.327Z,3.92
2023-04-05T17:41:07.042Z,4.00
2023-04-05T17:43:33.663Z,4.68
2023-04-05T17:46:00.273Z,4.65
2023-04-05T17:48:29.329Z,4.38
2023-04-05T17:51:03.682Z,4.53
2023-04-05T17:53:30.280Z,4.55
2023-04-05T17:55:56.990Z,5.10
2023-04-05T17:58:23.802Z,4.90
2023-04-05T18:00:52.168Z,3.80
2023-04-05T18:03:19.324Z,4.38
2023-04-05T18:05:52.197Z,4.35
2023-04-05T18:08:18.798Z,4.30
2023-04-05T18:10:45.668Z,4.47
2023-04-05T18:13:12.294Z,4.10
2023-04-05T18:15:39.509Z,3.80
2023-04-05T18:18:06.443Z,4.72
2023-04-05T18:20:33.093Z,4.82
2023-04-05T18:23:00.329Z,4.22
2023-04-05T18:25:28.115Z,4.60
2023-04-05T18:27:55.809Z,4.53
2023-04-05T18:30:22.516Z,5.68
2023-04-05T18:32:49.126Z,5.50
2023-04-05T18:35:16.302Z,5.13
2023-04-05T18:37:42.918Z,4.50
2023-04-05T18:40:09.948Z,4.45
2023-04-05T18:42:36.799Z,4.57
2023-04-05T18:45:03.674Z,4.88
2023-04-05T18:47:30.319Z,4.35
2023-04-05T18:49:57.533Z,4.57
2023-04-05T18:52:25.988Z,4.65
2023-04-05T18:54:53.473Z,4.15
2023-04-05T18:57:20.569Z,4.50
2023-04-05T18:59:47.316Z,5.13
2023-04-05T19:02:14.042Z,4.97
2023-04-05T19:04:40.857Z,4.47
2023-04-05T19:07:07.515Z,5.30
2023-04-05T19:09:34.132Z,9.00
2023-04-05T19:12:00.821Z,4.90
2023-04-05T19:14:27.437Z,6.25
2023-04-05T19:16:54.046Z,12.32
2023-04-05T19:19:20.908Z,8.23
2023-04-05T19:21:47.576Z,5.15
2023-04-05T19:24:15.134Z,4.68
2023-04-05T19:26:42.977Z,4.63
2023-04-05T19:29:10.069Z,4.60
2023-04-05T19:31:37.555Z,4.22
2023-04-05T19:34:07.744Z,4.10
2023-04-05T19:36:34.922Z,4.93
2023-04-05T19:39:03.472Z,4.00
2023-04-05T19:41:32.629Z,4.22
2023-04-05T19:44:00.176Z,4.63
2023-04-05T19:46:30.657Z,4.47
2023-04-05T19:49:08.215Z,4.30
2023-04-05T19:51:35.800Z,4.15
2023-04-05T19:54:12.413Z,3.85
2023-04-05T19:56:39.182Z,4.60
2023-04-05T19:59:32.149Z,4.40
2023-04-05T20:01:59.381Z,4.55
2023-04-05T20:04:26.239Z,13.52
2023-04-05T20:06:54.017Z,14.35
2023-04-05T20:09:27.219Z,13.32
2023-04-05T20:11:58.382Z,4.95
2023-04-05T20:14:27.786Z,5.18
2023-04-05T20:16:55.175Z,4.57
2023-04-05T20:19:30.587Z,4.15
2023-04-05T20:21:58.560Z,4.57
2023-04-05T20:24:27.192Z,4.55
2023-04-05T20:26:55.085Z,4.88
2023-04-05T20:29:25.606Z,4.47
2023-04-05T20:31:52.339Z,4.65
2023-04-05T20:34:31.394Z,5.35
2023-04-05T20:36:59.977Z,4.97
2023-04-05T20:39:27.074Z,4.32
2023-04-05T20:41:55.490Z,4.38
2023-04-05T20:44:22.817Z,5.15
2023-04-05T20:46:53.980Z,4.30
2023-04-05T20:49:20.999Z,7.88
2023-04-05T20:51:47.693Z,6.78
2023-04-05T20:54:14.330Z,18.52
2023-04-05T20:56:41.106Z,10.55
2023-04-05T20:59:08.097Z,7.85
2023-04-05T21:01:36.785Z,8.75
2023-04-05T21:04:04.006Z,5.28
2023-04-05T21:06:30.867Z,4.55
2023-04-05T21:08:57.483Z,5.07
2023-04-05T21:11:24.134Z,4.45
2023-04-05T21:13:50.728Z,5.03
2023-04-05T21:16:17.462Z,5.53
2023-04-05T21:18:44.126Z,5.35
2023-04-05T21:21:10.813Z,5.80
2023-04-05T21:23:37.414Z,5.13
2023-04-05T21:26:07.203Z,5.10
2023-04-05T21:28:33.825Z,5.72
2023-04-05T21:31:00.840Z,7.10
2023-04-05T21:33:27.531Z,6.22
2023-04-05T21:35:54.247Z,8.55
2023-04-05T21:38:21.110Z,7.70
2023-04-05T21:40:49.972Z,8.88
2023-04-05T21:43:16.687Z,9.50
2023-04-05T21:45:43.317Z,9.65
2023-04-05T21:48:09.973Z,8.30
2023-04-05T21:50:37.381Z,7.75
2023-04-05T21:53:05.233Z,8.63
2023-04-05T21:55:31.869Z,8.77
2023-04-05T21:57:58.586Z,8.90
2023-04-05T22:00:25.183Z,8.40
2023-04-05T22:02:51.993Z,8.70
2023-04-05T22:05:34.086Z,8.70
2023-04-05T22:08:05.562Z,8.88
2023-04-05T22:10:32.629Z,9.45
2023-04-05T22:12:59.244Z,10.38
2023-04-05T22:15:25.830Z,10.48
2023-04-05T22:17:52.465Z,10.20
2023-04-05T22:20:19.127Z,10.18
2023-04-05T22:22:45.761Z,9.00
2023-04-05T22:25:12.452Z,9.20
2023-04-05T22:27:39.441Z,9.43
2023-04-05T22:30:08.224Z,9.60
2023-04-05T22:32:35.412Z,9.32
2023-04-05T22:35:02.113Z,10.00
2023-04-05T22:37:35.156Z,9.13
2023-04-05T22:40:02.388Z,9.45
2023-04-05T22:42:29.004Z,9.65
2023-04-05T22:44:55.824Z,9.70
2023-04-05T22:47:22.708Z,9.15
2023-04-05T22:49:49.785Z,9.98
2023-04-05T22:52:16.644Z,9.50
2023-04-05T22:54:43.236Z,9.90
2023-04-05T22:57:11.472Z,9.00
2023-04-05T22:59:38.619Z,8.60
2023-04-05T23:02:05.469Z,8.85
2023-04-05T23:04:32.262Z,9.77
2023-04-05T23:06:58.946Z,9.48
2023-04-05T23:09:25.662Z,9.18
2023-04-05T23:11:52.356Z,9.65
2023-04-05T23:14:18.962Z,8.10
2023-04-05T23:16:45.781Z,8.70
2023-04-05T23:19:12.460Z,9.07
2023-04-05T23:21:39.061Z,8.55
2023-04-05T23:24:06.214Z,8.43
2023-04-05T23:26:33.024Z,9.38
2023-04-05T23:28:59.763Z,8.88
2023-04-05T23:31:26.410Z,8.45
2023-04-05T23:33:54.000Z,8.55
2023-04-05T23:36:21.879Z,8.90
2023-04-05T23:38:48.469Z,9.38
2023-04-05T23:41:15.087Z,9.80
2023-04-05T23:43:41.747Z,8.95
2023-04-05T23:46:08.423Z,8.90
2023-04-05T23:48:35.072Z,8.30
2023-04-05T23:51:01.650Z,9.23
2023-04-05T23:53:28.475Z,8.63
2023-04-05T23:55:56.738Z,9.15
2023-04-05T23:58:23.441Z,9.23
